Time;durP1;ratioP1;P1;durP2;ratioP2;P2;SDS_P1;SDS_P2;PMS_P1;PMS_P2;Temp;Humidity;BMP_temperature;BMP_pressure;BME280_temperature;BME280_humidity;BME280_pressure;Samples;Min_cycle;Max_cycle;Signal;HPM_P1;HPM_P2
2020/12/28 00:00:31;;;;;;;3.13;1.30;;;7.40;74.10;;;;;;5013885;28;82244;-79
2020/12/28 00:02:56;;;;;;;3.28;1.48;;;7.40;74.20;;;;;;5013774;28;83380;-77
2020/12/28 00:05:25;;;;;;;6.55;1.92;;;7.50;74.10;;;;;;5031940;28;82058;-82
2020/12/28 00:07:52;;;;;;;5.63;1.70;;;7.50;74.10;;;;;;5014910;28;79612;-78
2020/12/28 00:10:19;;;;;;;3.40;1.48;;;7.50;73.90;;;;;;5013881;28;79713;-81
2020/12/28 00:12:48;;;;;;;5.53;1.30;;;7.60;74.10;;;;;;5013465;28;83282;-78
2020/12/28 00:15:18;;;;;;;6.00;1.20;;;7.60;74.00;;;;;;5012713;28;82535;-79
2020/12/28 00:17:46;;;;;;;4.13;1.02;;;7.60;74.20;;;;;;5032034;28;80095;-79
2020/12/28 00:20:12;;;;;;;4.63;0.95;;;7.60;74.10;;;;;;4997134;28;81285;-78
2020/12/28 00:22:38;;;;;;;3.53;1.20;;;7.60;74.30;;;;;;5013675;28;80027;-80
2020/12/28 00:25:05;;;;;;;4.45;1.67;;;7.70;74.20;;;;;;5013026;28;82882;-77
2020/12/28 00:27:32;;;;;;;5.35;1.42;;;7.70;74.20;;;;;;5031452;28;80856;-77
2020/12/28 00:30:01;;;;;;;2.05;0.65;;;7.70;74.40;;;;;;5026976;28;80979;-79
2020/12/28 00:32:31;;;;;;;3.08;1.00;;;7.70;74.50;;;;;;4997470;28;83208;-77
2020/12/28 00:34:57;;;;;;;3.97;1.35;;;7.70;74.50;;;;;;5010277;28;82170;-78
2020/12/28 00:37:23;;;;;;;1.58;0.85;;;7.70;74.50;;;;;;5010923;28;80454;-78
2020/12/28 00:39:49;;;;;;;5.53;1.00;;;7.70;74.80;;;;;;5010850;28;81052;-77
2020/12/28 00:42:17;;;;;;;6.10;0.98;;;7.80;74.80;;;;;;4993885;28;80359;-80
2020/12/28 00:44:43;;;;;;;4.45;1.10;;;7.70;74.80;;;;;;5010334;28;82684;-77
2020/12/28 00:47:09;;;;;;;3.50;1.50;;;7.80;75.00;;;;;;5009966;28;80700;-76
2020/12/28 00:49:37;;;;;;;4.85;1.30;;;7.80;75.10;;;;;;5028002;28;80658;-77
2020/12/28 00:52:03;;;;;;;3.60;0.90;;;7.80;75.40;;;;;;4993028;28;81457;-75
2020/12/28 00:54:37;;;;;;;2.50;1.00;;;7.80;75.40;;;;;;5028537;28;80636;-76
2020/12/28 00:57:04;;;;;;;4.18;0.93;;;7.70;75.90;;;;;;5009283;28;82362;-76
2020/12/28 00:59:35;;;;;;;4.43;1.25;;;7.70;76.20;;;;;;5026928;28;81154;-77
2020/12/28 01:02:01;;;;;;;2.83;1.05;;;7.80;76.20;;;;;;5009856;28;80419;-81
2020/12/28 01:04:27;;;;;;;9.43;1.25;;;7.80;76.30;;;;;;5009599;28;82410;-77
2020/12/28 01:06:52;;;;;;;8.88;1.65;;;7.70;76.50;;;;;;5027629;28;82458;-80
2020/12/28 01:09:19;;;;;;;2.15;0.90;;;7.70;77.00;;;;;;5010376;28;81323;-83
2020/12/28 01:11:46;;;;;;;4.70;0.82;;;7.60;77.40;;;;;;5009038;28;81481;-82
2020/12/28 01:14:14;;;;;;;3.00;0.90;;;7.60;78.00;;;;;;5009363;28;81177;-75
2020/12/28 01:16:43;;;;;;;2.08;0.68;;;7.50;78.10;;;;;;5027296;28;80578;-76
2020/12/28 01:19:21;;;;;;;6.38;0.90;;;7.50;78.40;;;;;;5009518;28;80785;-75
2020/12/28 01:21:47;;;;;;;2.08;0.60;;;7.50;78.40;;;;;;5009585;28;80832;-78
2020/12/28 01:24:13;;;;;;;4.13;0.90;;;7.50;78.90;;;;;;5009701;28;80619;-80
2020/12/28 01:26:45;;;;;;;4.35;1.23;;;7.50;78.70;;;;;;5008613;28;80391;-74
2020/12/28 01:29:11;;;;;;;3.00;0.45;;;7.60;78.80;;;;;;5028112;28;80827;-76
2020/12/28 01:31:39;;;;;;;8.13;1.02;;;7.60;78.80;;;;;;5009558;28;80303;-73
2020/12/28 01:34:07;;;;;;;11.75;1.02;;;7.60;78.90;;;;;;5009546;28;80812;-75
2020/12/28 01:36:35;;;;;;;2.00;0.70;;;7.70;78.60;;;;;;5004901;28;80413;-78
2020/12/28 01:39:01;;;;;;;11.68;1.20;;;7.60;78.90;;;;;;5025335;28;81083;-78
2020/12/28 01:41:27;;;;;;;1.77;0.60;;;7.60;79.10;;;;;;5008851;28;81377;-77
2020/12/28 01:43:53;;;;;;;4.45;1.10;;;7.60;79.20;;;;;;5009173;28;82037;-81
2020/12/28 01:46:23;;;;;;;2.85;1.00;;;7.70;79.40;;;;;;5026706;28;81166;-80
2020/12/28 01:48:52;;;;;;;5.45;0.70;;;7.70;79.30;;;;;;5009135;28;82119;-77
2020/12/28 01:51:26;;;;;;;2.97;1.20;;;7.70;79.60;;;;;;4992749;28;81052;-80
2020/12/28 01:54:06;;;;;;;2.05;0.30;;;7.70;79.60;;;;;;5006256;28;80901;-76
2020/12/28 01:56:34;;;;;;;1.83;0.73;;;7.70;79.80;;;;;;5006837;28;81749;-80
2020/12/28 01:59:00;;;;;;;1.80;0.70;;;7.70;79.70;;;;;;5008441;28;80795;-77
2020/12/28 02:01:35;;;;;;;3.42;0.77;;;7.70;79.70;;;;;;5008809;28;80581;-81
2020/12/28 02:04:00;;;;;;;1.85;0.50;;;7.70;80.00;;;;;;5009075;28;81973;-81
2020/12/28 02:06:27;;;;;;;4.05;0.73;;;7.70;79.90;;;;;;5027314;28;80249;-78
2020/12/28 02:08:53;;;;;;;2.47;0.40;;;7.70;80.00;;;;;;4992244;28;79893;-78
2020/12/28 02:11:19;;;;;;;3.63;1.33;;;7.80;80.10;;;;;;5008194;28;80125;-84
2020/12/28 02:13:45;;;;;;;3.25;0.60;;;7.80;80.30;;;;;;5007394;28;82983;-79
2020/12/28 02:16:11;;;;;;;1.30;0.50;;;7.80;80.20;;;;;;5026753;28;80288;-81
2020/12/28 02:18:37;;;;;;;1.83;0.55;;;7.80;80.20;;;;;;5027036;28;81121;-79
2020/12/28 02:21:03;;;;;;;11.40;0.85;;;7.80;80.40;;;;;;5027124;28;80069;-76
2020/12/28 02:23:30;;;;;;;4.93;0.68;;;7.80;80.70;;;;;;5008632;28;81852;-79
2020/12/28 02:25:56;;;;;;;2.90;0.45;;;7.80;80.80;;;;;;5008618;28;80823;-75
2020/12/28 02:28:21;;;;;;;1.92;0.65;;;7.80;80.90;;;;;;5026960;28;79886;-75
2020/12/28 02:30:47;;;;;;;4.57;1.15;;;7.80;80.80;;;;;;5026439;28;82282;-74
2020/12/28 02:33:13;;;;;;;3.33;1.10;;;7.80;81.10;;;;;;4991824;28;80646;-76
2020/12/28 02:35:40;;;;;;;5.55;0.60;;;7.80;81.20;;;;;;5026593;28;81420;-76
2020/12/28 02:38:06;;;;;;;2.15;0.57;;;7.80;81.10;;;;;;5008246;28;84668;-74
2020/12/28 02:40:32;;;;;;;2.45;0.90;;;7.90;81.20;;;;;;5026214;28;80440;-73
2020/12/28 02:42:58;;;;;;;3.22;0.60;;;7.80;81.60;;;;;;5025300;28;79818;-74
2020/12/28 02:45:24;;;;;;;1.58;0.60;;;7.90;81.40;;;;;;5008494;28;80234;-74
2020/12/28 02:47:51;;;;;;;4.00;0.80;;;7.90;81.60;;;;;;5008420;28;80600;-75
2020/12/28 02:50:16;;;;;;;5.15;0.98;;;7.90;81.70;;;;;;5008512;28;81760;-75
2020/12/28 02:52:45;;;;;;;0.85;0.40;;;7.90;81.90;;;;;;5026137;28;81302;-76
2020/12/28 02:55:12;;;;;;;2.45;1.00;;;7.90;82.50;;;;;;5008180;28;81789;-75
2020/12/28 02:57:38;;;;;;;3.60;0.65;;;7.80;83.10;;;;;;5008969;27;81283;-78
2020/12/28 03:00:05;;;;;;;6.57;1.10;;;7.70;83.80;;;;;;5025915;28;80376;-78
2020/12/28 03:02:34;;;;;;;3.60;0.80;;;7.70;83.90;;;;;;5008247;28;81892;-74
2020/12/28 03:05:00;;;;;;;1.35;0.70;;;7.60;84.70;;;;;;5008173;28;80498;-75
2020/12/28 03:07:25;;;;;;;5.43;0.70;;;7.50;85.50;;;;;;5008044;28;82707;-74
2020/12/28 03:09:53;;;;;;;2.65;0.93;;;7.40;86.30;;;;;;5025870;28;80385;-75
2020/12/28 03:12:19;;;;;;;2.15;0.70;;;7.40;86.90;;;;;;5008059;28;79855;-73
2020/12/28 03:14:48;;;;;;;3.55;1.15;;;7.40;87.70;;;;;;5025843;28;80130;-74
2020/12/28 03:17:14;;;;;;;3.67;0.60;;;7.40;88.00;;;;;;5007883;28;79899;-73
2020/12/28 03:19:41;;;;;;;3.38;0.38;;;7.30;88.20;;;;;;5026493;28;80606;-73
2020/12/28 03:22:07;;;;;;;2.80;0.65;;;7.40;88.50;;;;;;5007824;28;79798;-73
2020/12/28 03:24:35;;;;;;;4.15;1.02;;;7.40;88.30;;;;;;5025777;28;80045;-73
2020/12/28 03:27:03;;;;;;;3.38;1.15;;;7.40;88.10;;;;;;5006346;28;79793;-73
2020/12/28 03:29:36;;;;;;;9.23;1.50;;;7.40;88.20;;;;;;5007839;28;82707;-74
2020/12/28 03:32:03;;;;;;;2.37;0.60;;;7.40;87.80;;;;;;4991037;28;80101;-75
2020/12/28 03:34:29;;;;;;;2.20;0.60;;;7.50;88.10;;;;;;5007718;28;81305;-74
2020/12/28 03:37:00;;;;;;;1.77;0.57;;;7.50;87.90;;;;;;5007862;28;81769;-74
2020/12/28 03:39:31;;;;;;;41.63;1.17;;;7.50;87.60;;;;;;5007553;28;80338;-75
2020/12/28 03:42:22;;;;;;;1.42;0.40;;;7.60;87.40;;;;;;5025657;28;81844;-75
2020/12/28 03:44:47;;;;;;;5.28;0.20;;;7.60;87.20;;;;;;5025614;28;80200;-74
2020/12/28 03:47:13;;;;;;;1.63;0.30;;;7.60;87.20;;;;;;5026443;28;80105;-75
2020/12/28 03:49:42;;;;;;;1.27;0.20;;;7.70;87.00;;;;;;5007491;28;83730;-77
2020/12/28 03:52:08;;;;;;;2.95;0.50;;;7.70;86.90;;;;;;5007809;28;81850;-75
2020/12/28 03:54:34;;;;;;;0.93;0.10;;;7.80;86.90;;;;;;5025552;28;81707;-75
2020/12/28 03:57:03;;;;;;;0.73;0.20;;;7.80;86.70;;;;;;5024231;28;80663;-74
2020/12/28 03:59:29;;;;;;;2.25;0.20;;;7.80;86.80;;;;;;5008149;28;81600;-74
2020/12/28 04:01:54;;;;;;;2.03;0.28;;;7.80;86.70;;;;;;5007252;28;81832;-74
2020/12/28 04:04:23;;;;;;;2.35;0.20;;;7.90;86.70;;;;;;5007455;28;82820;-73
2020/12/28 04:06:49;;;;;;;1.15;0.20;;;7.90;87.30;;;;;;5007409;28;80827;-75
2020/12/28 04:09:16;;;;;;;2.20;0.20;;;7.90;87.50;;;;;;5026915;28;79778;-74
2020/12/28 04:11:43;;;;;;;2.63;0.55;;;7.90;87.90;;;;;;5025768;28;80942;-75
2020/12/28 04:14:10;;;;;;;1.05;0.20;;;7.90;88.40;;;;;;5028740;28;79956;-75
2020/12/28 04:16:51;;;;;;;1.67;0.22;;;7.90;88.70;;;;;;5010883;28;81066;-76
2020/12/28 04:19:17;;;;;;;1.15;0.40;;;7.80;88.80;;;;;;5028903;28;80428;-75
2020/12/28 04:21:53;;;;;;;3.45;0.20;;;7.80;89.00;;;;;;5028669;28;80727;-76
2020/12/28 04:24:22;;;;;;;1.35;0.30;;;7.80;89.00;;;;;;4993637;28;82401;-74
2020/12/28 04:26:52;;;;;;;2.90;0.40;;;7.80;89.00;;;;;;5009876;28;80796;-75
2020/12/28 04:29:50;;;;;;;1.50;0.20;;;7.90;89.00;;;;;;5015303;28;80384;-76
2020/12/28 04:32:17;;;;;;;0.90;0.20;;;7.80;89.00;;;;;;4993320;28;83147;-77
2020/12/28 04:34:43;;;;;;;2.75;0.30;;;7.80;89.10;;;;;;5024740;28;80270;-76
2020/12/28 04:37:09;;;;;;;1.13;0.15;;;7.70;89.00;;;;;;5010686;28;83442;-76
2020/12/28 04:39:35;;;;;;;1.17;0.22;;;7.80;89.00;;;;;;5029506;28;80530;-76
2020/12/28 04:42:00;;;;;;;1.88;0.10;;;7.70;88.90;;;;;;5009395;28;82874;-76
2020/12/28 04:44:26;;;;;;;2.38;0.15;;;7.80;88.80;;;;;;5029033;28;80436;-77
2020/12/28 04:46:52;;;;;;;2.03;0.20;;;7.80;88.60;;;;;;5010133;28;81727;-76
2020/12/28 04:49:17;;;;;;;2.15;0.30;;;7.80;88.60;;;;;;5010451;28;83350;-73
2020/12/28 04:51:43;;;;;;;0.77;0.13;;;7.80;88.50;;;;;;5027885;28;79807;-76
2020/12/28 04:54:10;;;;;;;0.88;0.40;;;7.80;88.30;;;;;;5028190;28;80229;-75
2020/12/28 04:56:43;;;;;;;1.05;0.20;;;7.80;88.20;;;;;;5009777;28;83628;-77
2020/12/28 04:59:13;;;;;;;6.47;1.23;;;7.90;88.10;;;;;;5010873;28;79915;-81
2020/12/28 05:01:50;;;;;;;3.38;0.80;;;7.90;88.00;;;;;;5009767;28;80802;-77
2020/12/28 05:04:17;;;;;;;2.88;0.85;;;7.90;88.00;;;;;;5012059;28;80861;-76
2020/12/28 05:07:04;;;;;;;3.30;0.10;;;7.90;87.70;;;;;;4993366;28;79864;-78
2020/12/28 05:09:37;;;;;;;1.23;0.43;;;7.90;85.40;;;;;;5028666;28;79803;-75
2020/12/28 05:12:04;;;;;;;0.63;0.00;;;7.70;84.90;;;;;;4993214;28;81030;-75
2020/12/28 05:14:30;;;;;;;0.70;0.00;;;7.50;84.20;;;;;;5009649;28;80451;-74
2020/12/28 05:17:03;;;;;;;1.42;0.00;;;7.40;82.70;;;;;;5028104;28;80737;-74
2020/12/28 05:19:30;;;;;;;0.10;0.00;;;7.40;83.00;;;;;;5002881;28;82688;-74
2020/12/28 05:21:58;;;;;;;0.95;0.10;;;7.30;81.60;;;;;;5027235;28;80845;-75
2020/12/28 05:24:24;;;;;;;0.90;0.10;;;7.20;80.30;;;;;;5009344;28;80728;-75
2020/12/28 05:27:15;;;;;;;0.55;0.00;;;7.00;79.20;;;;;;5027648;28;80332;-76
2020/12/28 05:29:41;;;;;;;0.52;0.08;;;7.00;78.90;;;;;;5009064;28;80687;-76
2020/12/28 05:32:21;;;;;;;0.20;0.00;;;6.90;78.00;;;;;;5006127;28;84500;-75
2020/12/28 05:34:55;;;;;;;0.85;0.00;;;6.80;77.80;;;;;;5000458;28;81167;-76
2020/12/28 05:37:21;;;;;;;1.58;0.32;;;6.80;77.30;;;;;;5009836;28;82384;-75
2020/12/28 05:39:48;;;;;;;0.20;0.00;;;6.80;77.20;;;;;;5009053;28;83119;-75
2020/12/28 05:42:18;;;;;;;0.93;0.40;;;6.80;77.50;;;;;;5021957;28;80700;-75
2020/12/28 05:45:12;;;;;;;0.73;0.10;;;6.80;77.30;;;;;;4992444;28;81742;-75
2020/12/28 05:48:24;;;;;;;0.52;0.17;;;6.80;76.50;;;;;;5026060;28;79712;-76
2020/12/28 05:51:53;;;;;;;0.77;0.13;;;6.80;76.30;;;;;;5025142;28;80099;-76
2020/12/28 05:54:34;;;;;;;0.65;0.10;;;6.70;76.00;;;;;;4997810;28;80120;-76
2020/12/28 05:57:23;;;;;;;0.98;0.13;;;6.70;75.90;;;;;;5026087;28;80065;-77
2020/12/28 05:59:50;;;;;;;0.05;0.00;;;6.70;75.00;;;;;;5027149;28;80549;-76
2020/12/28 06:02:23;;;;;;;0.10;0.00;;;6.80;74.30;;;;;;5009013;28;80162;-77
2020/12/28 06:04:56;;;;;;;1.27;0.10;;;6.80;73.90;;;;;;5026694;28;79865;-76
2020/12/28 06:07:38;;;;;;;0.28;0.10;;;6.80;73.60;;;;;;5026850;28;80279;-76
2020/12/28 06:10:27;;;;;;;1.17;0.20;;;6.80;73.50;;;;;;5008954;28;80832;-74
2020/12/28 06:12:56;;;;;;;0.32;0.10;;;6.90;72.00;;;;;;5026318;28;81387;-77
2020/12/28 06:15:22;;;;;;;0.70;0.10;;;6.90;71.40;;;;;;5007791;28;81904;-75
2020/12/28 06:17:48;;;;;;;1.17;0.50;;;7.00;69.90;;;;;;5027324;28;79860;-73
2020/12/28 06:20:14;;;;;;;0.20;0.00;;;7.00;69.30;;;;;;5027147;28;79923;-76
2020/12/28 06:22:42;;;;;;;0.82;0.20;;;7.10;67.70;;;;;;5008854;28;83151;-75
2020/12/28 06:25:12;;;;;;;0.40;0.10;;;7.10;67.60;;;;;;5008869;28;84995;-76
2020/12/28 06:27:47;;;;;;;0.25;0.00;;;7.10;67.20;;;;;;5008497;28;81565;-76
2020/12/28 06:30:20;;;;;;;1.88;0.32;;;7.00;67.40;;;;;;5026218;28;82911;-77
2020/12/28 06:32:52;;;;;;;1.05;0.13;;;6.90;67.00;;;;;;5007645;28;81603;-77
2020/12/28 06:35:18;;;;;;;0.73;0.10;;;7.00;67.40;;;;;;5028262;28;79671;-78
2020/12/28 06:37:53;;;;;;;1.20;0.30;;;7.00;66.90;;;;;;5026565;28;80194;-74
2020/12/28 06:40:32;;;;;;;1.52;0.50;;;7.00;66.50;;;;;;5002268;28;82712;-75
2020/12/28 06:43:16;;;;;;;1.75;0.40;;;7.00;66.20;;;;;;5013722;28;81800;-72
2020/12/28 06:45:44;;;;;;;1.10;0.10;;;7.00;66.40;;;;;;5009614;28;80976;-73
2020/12/28 06:48:21;;;;;;;0.40;0.10;;;6.90;66.70;;;;;;5007828;28;81537;-71
2020/12/28 06:50:47;;;;;;;0.98;0.10;;;6.90;65.40;;;;;;4991844;28;82796;-72
2020/12/28 06:53:18;;;;;;;1.65;0.20;;;6.80;65.50;;;;;;5007626;28;81328;-71
2020/12/28 06:55:44;;;;;;;2.03;0.65;;;6.80;65.50;;;;;;4991626;28;85176;-71
2020/12/28 06:58:13;;;;;;;1.25;0.30;;;6.80;65.40;;;;;;4992261;28;80844;-72
2020/12/28 07:00:39;;;;;;;2.20;0.32;;;6.70;65.30;;;;;;4989985;28;81413;-76
2020/12/28 07:03:11;;;;;;;2.45;0.20;;;6.70;65.10;;;;;;4990356;28;84250;-75
2020/12/28 07:05:37;;;;;;;2.20;0.23;;;6.70;65.20;;;;;;4992567;28;80831;-77
2020/12/28 07:08:03;;;;;;;1.50;0.30;;;6.60;65.10;;;;;;4988162;28;82082;-78
2020/12/28 07:10:29;;;;;;;2.95;0.10;;;6.60;65.30;;;;;;4990872;28;81500;-80
2020/12/28 07:13:05;;;;;;;1.55;0.28;;;6.50;64.70;;;;;;5010539;28;81860;-79
2020/12/28 07:15:31;;;;;;;1.65;0.38;;;6.50;64.10;;;;;;4993468;28;81944;-76
2020/12/28 07:18:07;;;;;;;1.70;0.22;;;6.50;63.80;;;;;;4987729;28;81373;-73
2020/12/28 07:20:33;;;;;;;1.23;0.30;;;6.50;63.20;;;;;;4991938;28;81917;-74
2020/12/28 07:22:58;;;;;;;2.45;0.17;;;6.50;63.00;;;;;;5011430;28;82109;-78
2020/12/28 07:25:24;;;;;;;4.43;0.52;;;6.50;62.80;;;;;;4987576;28;81062;-77
2020/12/28 07:27:51;;;;;;;2.22;0.40;;;6.50;62.00;;;;;;5006289;28;81320;-79
2020/12/28 07:30:18;;;;;;;1.02;0.20;;;6.40;61.30;;;;;;5008336;28;80835;-74
2020/12/28 07:32:43;;;;;;;1.33;0.38;;;6.40;61.30;;;;;;5012975;28;81147;-76
2020/12/28 07:35:09;;;;;;;0.85;0.30;;;6.40;61.30;;;;;;5010197;28;81230;-76
2020/12/28 07:37:39;;;;;;;0.82;0.30;;;6.30;61.40;;;;;;5013656;28;81678;-77
2020/12/28 07:40:06;;;;;;;2.83;0.40;;;6.40;61.30;;;;;;5009658;28;81534;-75
2020/12/28 07:42:32;;;;;;;1.42;0.50;;;6.30;59.80;;;;;;4993155;28;83207;-73
2020/12/28 07:45:07;;;;;;;1.45;0.22;;;6.30;59.70;;;;;;5011668;28;81332;-77
2020/12/28 07:47:40;;;;;;;1.30;0.20;;;6.30;59.10;;;;;;5014431;28;81645;-72
2020/12/28 07:50:08;;;;;;;2.70;0.75;;;6.20;58.10;;;;;;5020421;28;81404;-74
2020/12/28 07:53:00;;;;;;;2.20;0.50;;;6.20;58.20;;;;;;5017333;28;81641;-74
2020/12/28 07:55:45;;;;;;;1.15;0.10;;;6.30;57.90;;;;;;5001866;28;82960;-65
2020/12/28 07:58:45;;;;;;;2.05;0.17;;;6.30;56.70;;;;;;5010888;28;80916;-65
2020/12/28 08:01:31;;;;;;;1.88;0.17;;;6.30;57.00;;;;;;5011146;28;81745;-64
2020/12/28 08:04:01;;;;;;;2.47;0.15;;;6.30;57.30;;;;;;5010498;28;81446;-67
2020/12/28 08:06:28;;;;;;;3.13;0.40;;;6.30;57.00;;;;;;5010686;28;81169;-71
2020/12/28 08:09:04;;;;;;;1.13;0.22;;;6.30;57.30;;;;;;5010514;28;82092;-66
2020/12/28 08:11:32;;;;;;;0.77;0.20;;;6.40;57.10;;;;;;5010729;28;81640;-65
2020/12/28 08:13:59;;;;;;;3.75;1.08;;;6.40;56.80;;;;;;5009858;28;81825;-66
2020/12/28 08:16:27;;;;;;;4.10;0.40;;;6.40;57.00;;;;;;5011058;28;81964;-62
2020/12/28 08:18:55;;;;;;;3.05;0.90;;;6.40;56.60;;;;;;5009320;28;81578;-62
2020/12/28 08:21:25;;;;;;;2.28;0.28;;;6.40;56.40;;;;;;5008801;28;81059;-64
2020/12/28 08:23:55;;;;;;;3.20;1.10;;;6.40;56.70;;;;;;5010702;28;81935;-64
2020/12/28 08:26:24;;;;;;;2.20;0.30;;;6.40;56.70;;;;;;5010911;28;81247;-62
2020/12/28 08:28:54;;;;;;;5.40;0.28;;;6.40;56.10;;;;;;5011607;28;81235;-62
2020/12/28 08:31:30;;;;;;;2.63;0.20;;;6.50;56.30;;;;;;5010754;28;81227;-63
2020/12/28 08:34:07;;;;;;;1.55;0.32;;;6.50;55.90;;;;;;5000140;28;83185;-63
2020/12/28 08:36:35;;;;;;;3.28;0.40;;;6.50;55.60;;;;;;5011274;28;81592;-64
2020/12/28 08:39:18;;;;;;;4.85;0.75;;;6.50;55.80;;;;;;5000141;28;83151;-63
2020/12/28 08:41:55;;;;;;;;;;;6.70;55.40;;;;;;5000648;28;83951;-64
2020/12/28 08:44:47;;;;;;;2.75;0.73;;;6.70;54.60;;;;;;5017045;28;81610;-64
2020/12/28 08:47:13;;;;;;;4.15;0.50;;;6.90;54.50;;;;;;5007979;28;82030;-64
2020/12/28 08:49:41;;;;;;;2.42;0.32;;;7.10;54.30;;;;;;5010650;28;81331;-62
2020/12/28 08:52:08;;;;;;;0.82;0.30;;;7.20;53.50;;;;;;4999514;28;81807;-62
2020/12/28 08:54:34;;;;;;;2.28;0.30;;;7.40;53.20;;;;;;5009314;28;81436;-63
2020/12/28 08:57:00;;;;;;;3.80;0.30;;;7.40;52.70;;;;;;5009220;28;81404;-65
2020/12/28 08:59:25;;;;;;;2.17;0.40;;;7.40;52.60;;;;;;5015164;28;82428;-64
2020/12/28 09:01:53;;;;;;;3.38;0.55;;;7.40;52.90;;;;;;5012529;28;81360;-64
2020/12/28 09:04:19;;;;;;;1.10;0.50;;;7.40;53.40;;;;;;5015488;28;81868;-63
2020/12/28 09:06:45;;;;;;;1.83;0.30;;;7.50;52.90;;;;;;5014627;28;81814;-65
2020/12/28 09:09:11;;;;;;;3.65;0.50;;;7.50;52.70;;;;;;5013708;28;80790;-62
2020/12/28 09:11:37;;;;;;;2.47;0.50;;;7.50;52.70;;;;;;5012768;28;81241;-64
2020/12/28 09:14:02;;;;;;;3.20;0.40;;;7.60;52.70;;;;;;4995322;28;83097;-63
2020/12/28 09:16:28;;;;;;;1.10;0.20;;;7.70;52.50;;;;;;5015519;28;81714;-63
2020/12/28 09:18:54;;;;;;;2.70;0.20;;;7.60;52.00;;;;;;5011934;28;81177;-63
2020/12/28 09:21:21;;;;;;;2.90;0.45;;;7.70;52.10;;;;;;5015103;28;81449;-63
2020/12/28 09:23:47;;;;;;;2.95;0.30;;;7.80;51.60;;;;;;5012761;28;81097;-63
2020/12/28 09:26:13;;;;;;;1.17;0.20;;;7.90;51.30;;;;;;5016686;28;81110;-62
2020/12/28 09:28:39;;;;;;;1.70;0.30;;;8.10;50.70;;;;;;5012773;28;81362;-62
2020/12/28 09:31:05;;;;;;;2.70;0.32;;;8.40;49.20;;;;;;4996861;28;82887;-63
2020/12/28 09:33:32;;;;;;;6.43;1.20;;;8.40;49.30;;;;;;4995543;28;81949;-64
2020/12/28 09:35:58;;;;;;;1.67;0.40;;;8.40;49.30;;;;;;5013788;28;81342;-63
2020/12/28 09:38:24;;;;;;;3.78;0.55;;;8.70;48.80;;;;;;5014176;28;81638;-62
2020/12/28 09:40:49;;;;;;;1.95;0.65;;;9.10;47.40;;;;;;5012733;28;81557;-63
2020/12/28 09:43:15;;;;;;;5.13;0.80;;;9.30;47.30;;;;;;5013151;28;81168;-62
2020/12/28 09:45:41;;;;;;;2.25;0.70;;;9.70;46.70;;;;;;5010636;28;81287;-62
2020/12/28 09:48:07;;;;;;;3.03;0.85;;;10.10;45.20;;;;;;5014961;28;81599;-62
2020/12/28 09:50:34;;;;;;;2.20;0.95;;;10.40;43.70;;;;;;5017826;28;81950;-62
2020/12/28 09:52:59;;;;;;;2.85;0.50;;;10.60;43.90;;;;;;5013880;28;80702;-63
2020/12/28 09:55:25;;;;;;;2.03;0.40;;;10.60;43.50;;;;;;5010085;28;81539;-63
2020/12/28 09:57:52;;;;;;;8.57;1.27;;;10.90;43.50;;;;;;5012166;28;81391;-62
2020/12/28 10:00:19;;;;;;;3.92;0.50;;;11.10;42.10;;;;;;5008498;28;81849;-63
2020/12/28 10:02:45;;;;;;;3.97;0.70;;;10.80;41.80;;;;;;5011373;28;81271;-63
2020/12/28 10:05:12;;;;;;;3.25;0.30;;;10.90;42.00;;;;;;5007338;28;80836;-63
2020/12/28 10:07:38;;;;;;;2.83;0.85;;;11.30;40.90;;;;;;5012154;28;81235;-62
2020/12/28 10:10:05;;;;;;;4.68;0.90;;;11.70;40.40;;;;;;5011447;28;81812;-63
2020/12/28 10:12:31;;;;;;;4.22;0.70;;;12.20;39.40;;;;;;5014205;28;81120;-62
2020/12/28 10:14:57;;;;;;;2.47;0.88;;;12.50;38.90;;;;;;4995916;28;82439;-62
2020/12/28 10:17:23;;;;;;;3.60;0.82;;;12.70;38.30;;;;;;4992506;28;81560;-62
2020/12/28 10:19:49;;;;;;;4.80;0.98;;;12.60;38.70;;;;;;5009708;28;81319;-62
2020/12/28 10:22:14;;;;;;;3.00;0.50;;;12.10;39.80;;;;;;5011299;28;81507;-62
2020/12/28 10:24:40;;;;;;;1.40;0.50;;;12.40;39.30;;;;;;5007900;28;81508;-63
2020/12/28 10:27:06;;;;;;;5.93;0.57;;;13.70;36.80;;;;;;5013678;28;81856;-62
2020/12/28 10:29:32;;;;;;;2.22;1.00;;;14.70;35.00;;;;;;4992504;28;81564;-63
2020/12/28 10:31:58;;;;;;;6.10;1.33;;;15.50;33.60;;;;;;5011544;28;81868;-62
2020/12/28 10:34:25;;;;;;;5.28;0.75;;;16.10;33.10;;;;;;5013770;28;81722;-62
2020/12/28 10:36:51;;;;;;;2.65;0.65;;;16.30;32.50;;;;;;5011276;28;82412;-63
2020/12/28 10:39:17;;;;;;;3.35;0.45;;;16.40;32.30;;;;;;5009584;28;81768;-65
2020/12/28 10:41:45;;;;;;;2.65;0.50;;;16.90;31.50;;;;;;5007479;28;80886;-64
2020/12/28 10:44:11;;;;;;;2.65;0.50;;;17.50;30.90;;;;;;4994172;28;84013;-65
2020/12/28 10:46:37;;;;;;;1.45;0.68;;;18.20;29.50;;;;;;4992093;28;83126;-65
2020/12/28 10:49:07;;;;;;;1.45;0.28;;;18.40;29.10;;;;;;5009843;28;81072;-64
2020/12/28 10:51:34;;;;;;;3.85;0.77;;;16.90;30.90;;;;;;5011008;28;81409;-63
2020/12/28 10:54:00;;;;;;;4.90;0.50;;;15.90;32.50;;;;;;5009583;28;81413;-63
2020/12/28 10:56:30;;;;;;;2.38;0.47;;;15.90;32.00;;;;;;5013358;28;81960;-64
2020/12/28 10:58:57;;;;;;;2.05;0.65;;;16.20;31.50;;;;;;4990262;28;83348;-63
2020/12/28 11:01:25;;;;;;;5.13;0.52;;;16.90;30.90;;;;;;5011559;28;81595;-63
2020/12/28 11:03:51;;;;;;;1.38;0.10;;;18.00;29.10;;;;;;4992488;28;82967;-62
2020/12/28 11:06:18;;;;;;;3.10;0.50;;;18.30;28.50;;;;;;4993625;28;81234;-63
2020/12/28 11:08:44;;;;;;;2.55;0.63;;;19.00;27.70;;;;;;4990375;28;83804;-64
2020/12/28 11:11:10;;;;;;;3.20;0.22;;;18.90;27.60;;;;;;4990416;28;82298;-63
2020/12/28 11:13:35;;;;;;;6.03;0.70;;;18.90;28.00;;;;;;5009609;28;80684;-63
2020/12/28 11:16:01;;;;;;;1.80;0.60;;;18.80;28.20;;;;;;4991002;28;83761;-63
2020/12/28 11:18:27;;;;;;;4.20;0.57;;;18.50;28.60;;;;;;5009352;28;81442;-64
2020/12/28 11:20:53;;;;;;;7.43;0.85;;;19.40;27.80;;;;;;4990682;28;81759;-64
2020/12/28 11:23:19;;;;;;;3.15;0.60;;;19.00;27.90;;;;;;5008727;28;81631;-65
2020/12/28 11:25:45;;;;;;;4.78;0.43;;;18.20;28.70;;;;;;5007977;28;81855;-64
2020/12/28 11:28:10;;;;;;;3.47;0.70;;;18.40;28.40;;;;;;5011561;28;80801;-63
2020/12/28 11:30:36;;;;;;;6.40;0.43;;;18.90;28.00;;;;;;5007745;28;80366;-64
2020/12/28 11:33:02;;;;;;;2.30;0.43;;;19.30;27.40;;;;;;5007685;28;81570;-66
2020/12/28 11:35:29;;;;;;;5.20;0.77;;;19.40;27.20;;;;;;5010399;28;81949;-63
2020/12/28 11:37:55;;;;;;;2.30;0.60;;;20.50;26.30;;;;;;5009975;28;81396;-64
2020/12/28 11:40:22;;;;;;;2.35;0.50;;;20.40;26.00;;;;;;5010088;28;81951;-63
2020/12/28 11:42:49;;;;;;;3.60;0.80;;;20.90;25.60;;;;;;5008300;28;81319;-64
2020/12/28 11:45:14;;;;;;;6.03;0.60;;;21.70;24.90;;;;;;4989993;28;82249;-65
2020/12/28 11:47:40;;;;;;;3.30;1.25;;;21.10;25.20;;;;;;5008555;28;81254;-64
2020/12/28 11:50:07;;;;;;;3.25;1.05;;;21.20;25.50;;;;;;4992263;28;81368;-64
2020/12/28 11:52:33;;;;;;;5.20;1.20;;;21.90;24.60;;;;;;5013559;28;81416;-64
2020/12/28 11:54:59;;;;;;;6.57;1.08;;;21.50;24.90;;;;;;5006456;28;81327;-64
2020/12/28 11:57:25;;;;;;;2.50;0.50;;;21.80;24.60;;;;;;4991662;28;84302;-65
2020/12/28 11:59:50;;;;;;;7.03;0.80;;;22.70;23.70;;;;;;5008282;28;80883;-64
2020/12/28 12:02:21;;;;;;;2.90;0.50;;;21.40;24.50;;;;;;5009827;28;80695;-63
2020/12/28 12:04:50;;;;;;;4.65;0.70;;;20.40;25.90;;;;;;4991527;28;81124;-62
2020/12/28 12:07:21;;;;;;;7.28;1.02;;;21.50;25.00;;;;;;5008976;28;81242;-64
2020/12/28 12:09:47;;;;;;;5.50;1.10;;;20.60;25.30;;;;;;5012212;28;81661;-64
2020/12/28 12:12:14;;;;;;;6.68;0.90;;;18.50;27.70;;;;;;4994119;28;81110;-62
2020/12/28 12:14:39;;;;;;;3.25;0.68;;;20.10;26.10;;;;;;4992218;28;82537;-65
2020/12/28 12:17:06;;;;;;;4.15;0.60;;;20.60;25.50;;;;;;4992917;28;83085;-63
2020/12/28 12:19:31;;;;;;;2.47;0.32;;;20.40;25.50;;;;;;5009108;28;81171;-65
2020/12/28 12:21:57;;;;;;;3.13;0.95;;;18.70;26.90;;;;;;5009175;28;81238;-63
2020/12/28 12:24:24;;;;;;;4.20;0.50;;;16.90;29.10;;;;;;4991635;28;81448;-64
2020/12/28 12:26:50;;;;;;;4.05;0.75;;;15.70;30.70;;;;;;5006086;28;81686;-64
2020/12/28 12:29:15;;;;;;;3.80;0.95;;;17.40;28.70;;;;;;4989927;28;80889;-63
2020/12/28 12:31:41;;;;;;;3.28;0.82;;;16.90;29.10;;;;;;5013559;28;81255;-63
2020/12/28 12:34:07;;;;;;;10.13;1.83;;;16.30;30.00;;;;;;5012386;28;82128;-63
2020/12/28 12:36:34;;;;;;;2.28;0.50;;;16.10;30.00;;;;;;5013642;28;81421;-63
2020/12/28 12:38:59;;;;;;;3.60;1.00;;;16.50;29.40;;;;;;5008510;28;81946;-62
2020/12/28 12:41:25;;;;;;;5.40;0.70;;;16.60;29.70;;;;;;5012673;28;81546;-62
2020/12/28 12:43:51;;;;;;;4.10;0.63;;;17.40;29.00;;;;;;5013023;28;82648;-63
2020/12/28 12:46:17;;;;;;;5.00;0.82;;;18.50;27.50;;;;;;5009302;28;82162;-64
2020/12/28 12:48:44;;;;;;;3.80;0.50;;;19.30;26.90;;;;;;5009997;28;81450;-64
2020/12/28 12:51:11;;;;;;;3.70;0.80;;;19.60;25.90;;;;;;5010396;28;81499;-65
2020/12/28 12:53:37;;;;;;;3.80;1.10;;;18.20;27.30;;;;;;5013786;28;80659;-62
2020/12/28 12:56:03;;;;;;;5.50;0.95;;;17.40;28.10;;;;;;4994674;28;83573;-65
2020/12/28 12:58:29;;;;;;;2.25;0.60;;;16.50;29.20;;;;;;5011197;28;81515;-63
2020/12/28 13:00:55;;;;;;;3.20;0.80;;;16.30;29.80;;;;;;5010321;28;81230;-62
2020/12/28 13:03:21;;;;;;;1.65;0.43;;;15.70;30.60;;;;;;5009890;28;81987;-62